createdAt,value
2018-08-10T00:00:30.143Z,23.70
2018-08-10T00:02:59.220Z,23.60
2018-08-10T00:05:28.082Z,23.60
2018-08-10T00:07:56.894Z,23.60
2018-08-10T00:10:25.653Z,23.70
2018-08-10T00:12:54.265Z,23.70
2018-08-10T00:15:23.000Z,23.70
2018-08-10T00:17:51.667Z,23.60
2018-08-10T00:20:20.416Z,23.60
2018-08-10T00:22:49.159Z,23.50
2018-08-10T00:25:19.327Z,22.10
2018-08-10T00:27:48.059Z,23.40
2018-08-10T00:30:18.273Z,23.40
2018-08-10T00:32:48.457Z,23.40
2018-08-10T00:35:17.302Z,23.40
2018-08-10T00:37:47.137Z,23.40
2018-08-10T00:40:18.656Z,22.80
2018-08-10T00:42:47.427Z,23.50
2018-08-10T00:45:16.757Z,23.30
2018-08-10T00:47:46.159Z,23.30
2018-08-10T00:50:15.749Z,23.40
2018-08-10T00:52:45.251Z,23.40
2018-08-10T00:55:15.234Z,23.40
2018-08-10T00:57:44.401Z,23.40
2018-08-10T01:00:16.455Z,23.50
2018-08-10T01:02:45.251Z,23.50
2018-08-10T01:05:14.029Z,23.60
2018-08-10T01:07:42.961Z,23.60
2018-08-10T01:10:15.913Z,23.50
2018-08-10T01:12:45.098Z,23.40
2018-08-10T01:15:15.103Z,23.40
2018-08-10T01:17:44.233Z,24.20
2018-08-10T01:20:16.321Z,23.30
2018-08-10T01:23:15.378Z,23.30
2018-08-10T01:25:44.112Z,23.30
2018-08-10T01:28:13.096Z,23.30
2018-08-10T01:30:42.226Z,23.40
2018-08-10T01:33:10.889Z,23.40
2018-08-10T01:35:39.563Z,23.50
2018-08-10T01:38:08.219Z,23.50
2018-08-10T01:40:37.151Z,23.50
2018-08-10T01:43:05.763Z,23.30
2018-08-10T01:45:34.544Z,23.20
2018-08-10T01:48:03.388Z,23.20
2018-08-10T01:50:32.066Z,23.20
2018-08-10T01:53:00.754Z,23.20
2018-08-10T01:55:29.356Z,23.20
2018-08-10T01:57:58.024Z,23.10
2018-08-10T02:00:27.728Z,23.10
2018-08-10T02:02:56.551Z,23.20
2018-08-10T02:05:25.157Z,23.20
2018-08-10T02:09:23.207Z,23.20
2018-08-10T02:11:51.968Z,23.10
2018-08-10T02:14:20.755Z,23.00
2018-08-10T02:16:49.487Z,22.90
2018-08-10T02:19:18.113Z,24.40
2018-08-10T02:21:46.846Z,22.90
2018-08-10T02:24:15.552Z,22.80
2018-08-10T02:26:44.328Z,22.80
2018-08-10T02:29:13.167Z,22.70
2018-08-10T02:31:42.198Z,22.70
2018-08-10T02:34:10.870Z,22.70
2018-08-10T02:36:39.560Z,22.70
2018-08-10T02:39:11.111Z,22.70
2018-08-10T02:41:39.777Z,22.80
2018-08-10T02:44:08.917Z,22.90
2018-08-10T02:46:37.620Z,22.90
2018-08-10T02:49:06.349Z,23.30
2018-08-10T02:51:35.149Z,22.10
2018-08-10T02:54:04.194Z,22.70
2018-08-10T02:56:33.016Z,22.70
2018-08-10T02:59:02.355Z,22.70
2018-08-10T03:01:31.065Z,22.70
2018-08-10T03:04:01.327Z,22.70
2018-08-10T03:06:30.166Z,22.70
2018-08-10T03:08:59.095Z,22.70
2018-08-10T03:11:27.775Z,22.70
2018-08-10T03:13:56.486Z,22.00
2018-08-10T03:16:25.230Z,22.60
2018-08-10T03:18:54.141Z,22.60
2018-08-10T03:21:22.870Z,22.70
2018-08-10T03:23:51.659Z,23.70
2018-08-10T03:26:21.929Z,22.70
2018-08-10T03:28:50.742Z,22.70
2018-08-10T03:31:19.386Z,22.80
2018-08-10T03:33:48.038Z,22.80
2018-08-10T03:36:21.563Z,22.80
2018-08-10T03:38:52.383Z,22.70
2018-08-10T03:41:21.183Z,22.80
2018-08-10T03:43:49.922Z,22.80
2018-08-10T03:46:19.791Z,22.70
2018-08-10T03:48:48.586Z,22.70
2018-08-10T03:51:17.163Z,22.50
2018-08-10T03:53:47.435Z,22.50
2018-08-10T03:56:16.557Z,22.60
2018-08-10T03:58:45.364Z,22.60
2018-08-10T04:01:13.973Z,22.60
2018-08-10T04:03:42.698Z,22.60
2018-08-10T04:06:11.881Z,22.60
2018-08-10T04:08:40.539Z,22.60
2018-08-10T04:11:10.885Z,22.70
2018-08-10T04:13:39.760Z,22.70
2018-08-10T04:16:08.514Z,22.80
2018-08-10T04:18:37.309Z,22.90
2018-08-10T04:21:06.032Z,22.90
2018-08-10T04:23:34.763Z,21.40
2018-08-10T04:26:03.563Z,22.70
2018-08-10T04:28:32.251Z,22.60
2018-08-10T04:31:02.554Z,22.60
2018-08-10T04:33:31.243Z,22.70
2018-08-10T04:36:01.019Z,22.70
2018-08-10T04:38:29.710Z,22.80
2018-08-10T04:41:00.098Z,22.80
2018-08-10T04:43:28.860Z,22.70
2018-08-10T04:45:57.638Z,22.80
2018-08-10T04:48:26.361Z,22.70
2018-08-10T04:50:54.996Z,22.80
2018-08-10T04:53:23.838Z,21.40
2018-08-10T04:55:52.667Z,22.80
2018-08-10T04:58:23.450Z,22.80
2018-08-10T05:00:53.299Z,22.80
2018-08-10T05:03:22.009Z,22.90
2018-08-10T05:05:50.707Z,23.00
2018-08-10T05:08:19.437Z,23.00
2018-08-10T05:10:48.296Z,22.90
2018-08-10T05:13:17.016Z,22.90
2018-08-10T05:15:46.110Z,23.00
2018-08-10T05:18:14.880Z,23.00
2018-08-10T05:20:43.458Z,23.00
2018-08-10T05:23:14.143Z,22.90
2018-08-10T05:25:42.966Z,22.80
2018-08-10T05:28:11.687Z,22.80
2018-08-10T05:30:40.351Z,22.80
2018-08-10T05:33:09.066Z,22.80
2018-08-10T05:35:37.907Z,22.80
2018-08-10T05:38:08.433Z,22.70
2018-08-10T05:40:37.170Z,22.60
2018-08-10T05:43:06.067Z,22.60
2018-08-10T05:45:35.146Z,22.70
2018-08-10T05:48:04.481Z,22.60
2018-08-10T05:50:33.096Z,22.70
2018-08-10T05:53:01.792Z,22.60
2018-08-10T05:55:30.438Z,22.60
2018-08-10T05:57:59.067Z,22.60
2018-08-10T06:00:27.949Z,22.70
2018-08-10T06:02:56.815Z,22.70
2018-08-10T06:05:25.689Z,22.70
2018-08-10T06:07:54.572Z,22.60
2018-08-10T06:10:23.306Z,22.60
2018-08-10T06:12:52.038Z,22.60
2018-08-10T06:15:20.712Z,22.60
2018-08-10T06:17:49.413Z,22.50
2018-08-10T06:20:18.087Z,22.50
2018-08-10T06:22:46.750Z,22.50
2018-08-10T06:25:15.443Z,22.50
2018-08-10T06:27:45.099Z,22.60
2018-08-10T06:30:14.741Z,22.60
2018-08-10T06:32:44.944Z,21.80
2018-08-10T06:35:13.662Z,22.70
2018-08-10T06:37:42.709Z,22.70
2018-08-10T06:40:11.532Z,22.60
2018-08-10T06:42:40.413Z,22.50
2018-08-10T06:45:09.178Z,22.60
2018-08-10T06:47:38.392Z,22.70
2018-08-10T06:50:07.590Z,22.80
2018-08-10T06:52:36.347Z,22.90
2018-08-10T06:55:05.153Z,23.00
2018-08-10T06:57:34.117Z,23.20
2018-08-10T07:00:02.860Z,23.30
2018-08-10T07:02:31.567Z,23.30
2018-08-10T07:05:04.823Z,23.50
2018-08-10T07:07:33.689Z,23.60
2018-08-10T07:10:02.414Z,23.70
2018-08-10T07:12:31.224Z,23.80
2018-08-10T07:14:59.920Z,23.90
2018-08-10T07:17:28.670Z,23.90
2018-08-10T07:19:57.422Z,23.90
2018-08-10T07:22:26.398Z,23.40
2018-08-10T07:24:55.302Z,23.70
2018-08-10T07:27:23.996Z,23.80
2018-08-10T07:29:52.667Z,23.80
2018-08-10T07:32:21.386Z,23.80
2018-08-10T07:34:50.062Z,24.50
2018-08-10T07:37:18.753Z,23.70
2018-08-10T07:39:47.455Z,23.60
2018-08-10T07:42:22.544Z,23.70
2018-08-10T07:44:51.630Z,23.70
2018-08-10T07:47:20.293Z,23.90
2018-08-10T07:50:05.254Z,23.90
2018-08-10T07:52:33.933Z,24.00
2018-08-10T07:55:02.906Z,23.90
2018-08-10T07:57:31.670Z,24.00
2018-08-10T08:00:00.429Z,24.20
2018-08-10T08:02:29.197Z,24.20
2018-08-10T08:05:00.092Z,24.10
2018-08-10T08:07:28.895Z,24.00
2018-08-10T08:09:57.673Z,24.00
2018-08-10T08:12:26.475Z,24.00
2018-08-10T08:14:55.250Z,24.10
2018-08-10T08:17:24.002Z,25.70
2018-08-10T08:19:52.750Z,23.90
2018-08-10T08:22:22.222Z,23.80
2018-08-10T08:24:50.921Z,23.70
2018-08-10T08:27:20.147Z,23.60
2018-08-10T08:29:48.767Z,23.50
2018-08-10T08:32:18.492Z,23.40
2018-08-10T08:34:48.230Z,23.30
2018-08-10T08:37:17.099Z,23.30
2018-08-10T08:40:20.500Z,23.30
2018-08-10T08:42:49.760Z,23.30
2018-08-10T08:45:38.421Z,23.40
2018-08-10T08:48:07.705Z,23.60
2018-08-10T08:50:37.664Z,23.70
2018-08-10T08:53:06.724Z,23.70
2018-08-10T08:55:53.689Z,23.60
2018-08-10T08:58:25.829Z,23.50
2018-08-10T09:00:54.641Z,23.50
2018-08-10T09:05:41.341Z,23.40
2018-08-10T09:08:10.169Z,23.30
2018-08-10T09:10:39.101Z,23.50
2018-08-10T09:13:08.252Z,23.60
2018-08-10T09:15:36.995Z,23.50
2018-08-10T09:18:06.317Z,23.50
2018-08-10T09:20:34.853Z,23.60
2018-08-10T09:23:03.774Z,23.70
2018-08-10T09:25:32.438Z,23.80
2018-08-10T09:28:01.159Z,23.80
2018-08-10T09:30:30.504Z,23.80
2018-08-10T09:32:59.239Z,23.80
2018-08-10T09:35:28.067Z,23.70
2018-08-10T09:37:57.015Z,23.70
2018-08-10T09:40:31.180Z,23.60
2018-08-10T09:43:05.051Z,23.50
2018-08-10T09:45:33.998Z,23.40
2018-08-10T09:48:02.853Z,23.40
2018-08-10T09:50:31.537Z,23.60
2018-08-10T09:53:01.716Z,23.70
2018-08-10T09:55:33.231Z,23.70
2018-08-10T09:58:07.092Z,23.80
2018-08-10T10:00:42.319Z,23.70
2018-08-10T10:03:16.831Z,23.60
2018-08-10T10:05:46.165Z,23.40
2018-08-10T10:08:15.325Z,23.30
2018-08-10T10:10:44.204Z,23.30
2018-08-10T10:13:13.071Z,23.30
2018-08-10T10:15:42.379Z,23.40
2018-08-10T10:18:12.332Z,23.40
2018-08-10T10:20:41.435Z,23.40
2018-08-10T10:23:10.252Z,23.30
2018-08-10T10:25:40.483Z,23.30
2018-08-10T10:28:09.384Z,22.70
2018-08-10T10:30:38.309Z,23.80
2018-08-10T10:33:07.032Z,22.80
2018-08-10T10:35:35.698Z,22.60
2018-08-10T10:38:04.455Z,22.50
2018-08-10T10:40:33.321Z,22.50
2018-08-10T10:43:02.194Z,22.50
2018-08-10T10:45:31.942Z,22.50
2018-08-10T10:48:00.707Z,22.40
2018-08-10T10:50:30.611Z,22.20
2018-08-10T10:53:00.342Z,22.30
2018-08-10T10:55:29.296Z,22.30
2018-08-10T10:57:58.155Z,22.20
2018-08-10T11:00:26.901Z,22.10
2018-08-10T11:02:56.974Z,22.00
2018-08-10T11:05:25.663Z,22.10
2018-08-10T11:07:54.399Z,22.00
2018-08-10T11:10:23.228Z,22.10
2018-08-10T11:12:51.841Z,22.10
2018-08-10T11:15:21.585Z,22.20
2018-08-10T11:17:50.466Z,22.40
2018-08-10T11:20:19.327Z,22.50
2018-08-10T11:22:48.061Z,22.50
2018-08-10T11:25:17.034Z,22.50
2018-08-10T11:27:46.063Z,22.60
2018-08-10T11:30:14.751Z,22.50
2018-08-10T11:32:43.460Z,22.40
2018-08-10T11:35:12.443Z,22.20
2018-08-10T11:37:42.498Z,22.10
2018-08-10T11:40:13.386Z,22.00
2018-08-10T11:42:44.229Z,22.00
2018-08-10T11:45:15.047Z,21.90
2018-08-10T11:47:43.906Z,21.90
2018-08-10T11:50:12.683Z,21.80
2018-08-10T11:52:41.493Z,21.80
2018-08-10T11:55:12.210Z,21.80
2018-08-10T11:57:41.086Z,21.60
2018-08-10T12:00:11.605Z,21.60
2018-08-10T12:02:40.291Z,21.10
2018-08-10T12:05:11.212Z,21.60
2018-08-10T12:07:39.977Z,21.60
2018-08-10T12:10:09.076Z,21.60
2018-08-10T12:12:38.058Z,21.60
2018-08-10T12:15:10.502Z,21.40
2018-08-10T12:17:39.352Z,21.10
2018-08-10T12:20:08.518Z,21.00
2018-08-10T12:22:37.214Z,20.90
2018-08-10T12:25:06.250Z,21.00
2018-08-10T12:27:35.026Z,21.10
2018-08-10T12:30:04.176Z,20.90
2018-08-10T12:32:33.100Z,20.80
2018-08-10T12:35:01.979Z,20.90
2018-08-10T12:37:30.839Z,20.90
2018-08-10T12:39:59.680Z,20.60
2018-08-10T12:42:28.647Z,20.00
2018-08-10T12:44:57.456Z,20.90
2018-08-10T12:47:26.279Z,20.90
2018-08-10T12:49:55.005Z,20.90
2018-08-10T12:52:26.162Z,20.80
2018-08-10T12:54:54.818Z,20.90
2018-08-10T12:57:23.578Z,20.90
2018-08-10T12:59:52.263Z,20.50
2018-08-10T13:02:20.986Z,21.00
2018-08-10T13:04:49.807Z,21.00
2018-08-10T13:07:18.475Z,21.10
2018-08-10T13:09:47.214Z,21.20
2018-08-10T13:12:15.824Z,21.10
2018-08-10T13:14:44.517Z,21.30
2018-08-10T13:17:13.237Z,21.40
2018-08-10T13:19:41.912Z,21.30
2018-08-10T13:22:10.639Z,21.20
2018-08-10T13:24:40.320Z,21.10
2018-08-10T13:27:09.040Z,20.70
2018-08-10T13:29:37.660Z,20.30
2018-08-10T13:32:06.584Z,20.20
2018-08-10T13:34:35.284Z,20.30
2018-08-10T13:37:04.113Z,20.40
2018-08-10T13:39:32.934Z,20.30
2018-08-10T13:42:01.772Z,19.90
2018-08-10T13:44:30.499Z,20.00
2018-08-10T13:46:59.208Z,19.90
2018-08-10T13:49:27.915Z,19.70
2018-08-10T13:51:56.682Z,19.80
2018-08-10T13:54:25.417Z,19.80
2018-08-10T13:56:54.104Z,19.60
2018-08-10T13:59:22.810Z,19.60
2018-08-10T14:01:53.808Z,19.60
2018-08-10T14:04:22.568Z,19.60
2018-08-10T14:06:51.538Z,19.60
2018-08-10T14:09:20.317Z,19.40
2018-08-10T14:11:48.981Z,19.40
2018-08-10T14:14:17.684Z,18.30
2018-08-10T14:16:46.668Z,19.40
2018-08-10T14:19:15.431Z,19.30
2018-08-10T14:21:45.510Z,19.30
2018-08-10T14:24:14.281Z,19.00
2018-08-10T14:26:42.997Z,18.90
2018-08-10T14:29:11.882Z,19.00
2018-08-10T14:31:40.768Z,18.90
2018-08-10T14:34:11.276Z,19.10
2018-08-10T14:36:40.762Z,19.10
2018-08-10T14:39:11.441Z,19.00
2018-08-10T14:41:40.412Z,18.90
2018-08-10T14:44:09.637Z,18.90
2018-08-10T14:46:38.807Z,18.80
2018-08-10T14:49:08.665Z,18.80
2018-08-10T15:07:25.216Z,19.00
2018-08-10T15:09:54.108Z,18.70
2018-08-10T15:12:23.288Z,18.60
2018-08-10T15:14:51.802Z,18.50
2018-08-10T15:17:20.522Z,18.50
2018-08-10T15:19:49.348Z,18.40
2018-08-10T15:22:18.222Z,17.70
2018-08-10T15:24:46.910Z,17.90
2018-08-10T15:27:16.725Z,18.60
2018-08-10T15:29:45.475Z,18.60
2018-08-10T15:32:17.007Z,18.60
2018-08-10T15:34:46.001Z,18.50
2018-08-10T15:37:14.702Z,18.40
2018-08-10T15:39:43.463Z,18.20
2018-08-10T15:42:12.291Z,18.00
2018-08-10T15:44:40.969Z,18.00
2018-08-10T15:47:09.697Z,18.10
2018-08-10T15:49:38.782Z,17.90
2018-08-10T15:52:08.676Z,17.90
2018-08-10T15:54:38.474Z,17.90
2018-08-10T15:57:07.150Z,17.70
2018-08-10T15:59:38.210Z,17.80
2018-08-10T16:02:07.318Z,17.70
2018-08-10T16:04:36.145Z,17.70
2018-08-10T16:07:05.245Z,17.80
2018-08-10T16:09:35.316Z,17.90
2018-08-10T16:12:04.216Z,18.00
2018-08-10T16:14:33.170Z,18.10
2018-08-10T16:17:02.788Z,18.10
2018-08-10T16:19:31.785Z,18.20
2018-08-10T16:22:03.325Z,18.10
2018-08-10T16:24:32.060Z,18.00
2018-08-10T16:27:03.173Z,17.90
2018-08-10T16:29:32.103Z,17.90
2018-08-10T16:32:06.285Z,18.10
2018-08-10T16:34:36.484Z,18.10
2018-08-10T16:37:05.406Z,18.10
2018-08-10T16:39:34.155Z,18.00
2018-08-10T16:42:03.283Z,17.70
2018-08-10T16:44:32.550Z,18.00
2018-08-10T16:47:01.354Z,17.90
2018-08-10T16:49:30.039Z,17.90
2018-08-10T16:51:58.752Z,17.80
2018-08-10T16:54:27.615Z,17.70
2018-08-10T16:56:56.421Z,17.70
2018-08-10T16:59:26.241Z,18.70
2018-08-10T17:01:55.213Z,17.70
2018-08-10T17:04:24.114Z,17.70
2018-08-10T17:06:52.767Z,17.70
2018-08-10T17:09:21.507Z,17.60
2018-08-10T17:11:50.184Z,17.50
2018-08-10T17:14:19.008Z,17.50
2018-08-10T17:16:47.629Z,17.50
2018-08-10T17:19:17.133Z,17.60
2018-08-10T17:21:46.704Z,17.50
2018-08-10T17:24:17.403Z,17.50
2018-08-10T17:26:46.142Z,17.60
2018-08-10T17:29:15.173Z,17.80
2018-08-10T17:31:44.139Z,17.40
2018-08-10T17:34:13.076Z,17.50
2018-08-10T17:36:41.994Z,17.60
2018-08-10T17:39:12.973Z,17.70
2018-08-10T17:41:42.046Z,17.70
2018-08-10T17:44:13.135Z,17.60
2018-08-10T17:46:41.932Z,17.60
2018-08-10T17:49:10.781Z,17.70
2018-08-10T17:51:41.779Z,17.70
2018-08-10T17:54:10.859Z,17.60
2018-08-10T17:56:39.747Z,17.60
2018-08-10T17:59:08.652Z,17.60
2018-08-10T18:01:37.709Z,17.60
2018-08-10T18:04:07.388Z,17.70
2018-08-10T18:06:36.506Z,17.70
2018-08-10T18:09:12.371Z,17.70
2018-08-10T18:11:41.298Z,17.60
2018-08-10T18:14:10.327Z,17.60
2018-08-10T18:18:08.420Z,17.70
2018-08-10T18:20:37.248Z,17.60
2018-08-10T18:23:10.903Z,17.80
2018-08-10T18:25:39.776Z,17.80
2018-08-10T18:28:08.705Z,17.80
2018-08-10T18:30:38.186Z,17.70
2018-08-10T18:33:07.395Z,17.70
2018-08-10T18:35:36.225Z,17.70
2018-08-10T18:38:05.361Z,17.80
2018-08-10T18:40:36.209Z,17.90
2018-08-10T18:43:05.992Z,17.80
2018-08-10T18:45:36.355Z,17.90
2018-08-10T18:48:08.570Z,18.00
2018-08-10T18:50:37.840Z,18.10
2018-08-10T18:53:06.838Z,18.10
2018-08-10T18:55:35.829Z,18.00
2018-08-10T18:58:04.776Z,18.00
2018-08-10T19:00:33.707Z,17.70
2018-08-10T19:03:02.627Z,18.00
2018-08-10T19:05:31.603Z,18.00
2018-08-10T19:08:01.212Z,18.10
2018-08-10T19:10:30.155Z,18.00
2018-08-10T19:13:01.267Z,17.50
2018-08-10T19:15:30.070Z,18.00
2018-08-10T19:17:59.963Z,18.10
2018-08-10T19:20:28.827Z,18.10
2018-08-10T19:22:57.501Z,18.20
2018-08-10T19:25:26.746Z,18.10
2018-08-10T19:27:55.524Z,18.00
2018-08-10T19:30:24.997Z,18.00
2018-08-10T19:32:54.047Z,18.00
2018-08-10T19:35:22.875Z,18.00
2018-08-10T19:37:51.754Z,17.90
2018-08-10T19:40:22.386Z,17.90
2018-08-10T19:42:51.314Z,17.80
2018-08-10T19:45:20.017Z,17.90
2018-08-10T19:47:48.909Z,17.90
2018-08-10T19:50:22.108Z,17.90
2018-08-10T19:52:51.121Z,18.00
2018-08-10T19:55:19.803Z,18.00
2018-08-10T19:57:48.678Z,18.00
2018-08-10T20:00:18.575Z,18.00
2018-08-10T20:02:48.406Z,18.00
2018-08-10T20:05:17.408Z,18.00
2018-08-10T20:07:46.515Z,17.90
2018-08-10T20:10:15.605Z,18.00
2018-08-10T20:12:44.335Z,18.10
2018-08-10T20:15:14.671Z,18.10
2018-08-10T20:17:43.710Z,19.80
2018-08-10T20:20:14.884Z,18.10
2018-08-10T20:22:43.813Z,18.10
2018-08-10T20:25:13.216Z,18.00
2018-08-10T20:27:41.907Z,18.00
2018-08-10T20:30:13.569Z,18.10
2018-08-10T20:32:42.480Z,18.10
2018-08-10T20:35:14.222Z,18.10
2018-08-10T20:37:43.242Z,18.10
2018-08-10T20:40:15.238Z,18.10
2018-08-10T20:42:44.245Z,18.10
2018-08-10T20:45:13.197Z,18.10
2018-08-10T20:47:42.154Z,18.00
2018-08-10T20:50:14.333Z,18.10
2018-08-10T20:52:43.485Z,18.20
2018-08-10T20:55:12.526Z,18.10
2018-08-10T20:57:41.290Z,18.20
2018-08-10T21:00:12.301Z,18.20
2018-08-10T21:02:42.383Z,16.50
2018-08-10T21:05:11.443Z,18.30
2018-08-10T21:08:01.028Z,18.20
2018-08-10T21:10:30.194Z,18.20
2018-08-10T21:12:58.962Z,18.30
2018-08-10T21:15:31.307Z,18.30
2018-08-10T21:18:00.060Z,18.30
2018-08-10T21:20:28.879Z,18.30
2018-08-10T21:22:57.734Z,18.20
2018-08-10T21:25:26.540Z,18.30
2018-08-10T21:27:55.238Z,18.40
2018-08-10T21:30:23.975Z,18.30
2018-08-10T21:32:52.656Z,18.40
2018-08-10T21:35:21.475Z,18.40
2018-08-10T21:37:50.235Z,18.50
2018-08-10T21:40:19.226Z,18.50
2018-08-10T21:42:48.272Z,18.60
2018-08-10T21:45:17.061Z,18.50
2018-08-10T21:47:45.919Z,17.80
2018-08-10T21:50:15.196Z,18.40
2018-08-10T21:52:44.697Z,18.40
2018-08-10T21:55:13.530Z,18.50
2018-08-10T21:57:42.260Z,18.30
2018-08-10T22:00:22.500Z,18.40
2018-08-10T22:02:51.362Z,19.60
2018-08-10T22:05:20.154Z,18.50
2018-08-10T22:07:48.851Z,18.50
2018-08-10T22:10:17.543Z,18.40
2018-08-10T22:12:48.285Z,17.80
2018-08-10T22:15:24.724Z,17.70
2018-08-10T22:17:58.570Z,17.70
2018-08-10T22:20:27.300Z,17.70
2018-08-10T22:22:55.990Z,17.90
2018-08-10T22:25:25.421Z,17.90
2018-08-10T22:27:54.247Z,18.80
2018-08-10T22:30:22.971Z,18.40
2018-08-10T22:32:51.697Z,18.30
2018-08-10T22:35:20.658Z,18.20
2018-08-10T22:37:49.527Z,18.10
2018-08-10T22:40:18.377Z,17.90
2018-08-10T22:42:47.029Z,17.80
2018-08-10T22:45:15.714Z,17.60
2018-08-10T22:47:44.637Z,17.50
2018-08-10T22:50:14.947Z,17.40
2018-08-10T22:52:44.582Z,17.50
2018-08-10T22:55:13.474Z,17.60
2018-08-10T22:57:42.184Z,17.60
2018-08-10T23:00:11.054Z,17.70
2018-08-10T23:02:39.842Z,17.80
2018-08-10T23:05:08.841Z,17.80
2018-08-10T23:07:37.751Z,17.80
2018-08-10T23:10:09.073Z,17.80
2018-08-10T23:12:37.830Z,18.70
2018-08-10T23:15:07.265Z,15.80
2018-08-10T23:17:36.304Z,17.70
2018-08-10T23:20:07.230Z,17.80
2018-08-10T23:22:36.024Z,17.80
2018-08-10T23:25:06.106Z,17.80
2018-08-10T23:27:34.925Z,17.90
2018-08-10T23:30:03.785Z,18.70
2018-08-10T23:32:32.577Z,18.00
2018-08-10T23:35:01.295Z,18.00
2018-08-10T23:37:29.946Z,18.10
2018-08-10T23:39:58.545Z,18.10
2018-08-10T23:42:27.279Z,18.00
2018-08-10T23:44:56.254Z,18.00
2018-08-10T23:47:25.093Z,17.90
2018-08-10T23:49:53.887Z,17.90
2018-08-10T23:52:22.746Z,17.90
2018-08-10T23:54:51.389Z,17.90
2018-08-10T23:57:20.082Z,17.90
2018-08-10T23:59:48.845Z,17.90
